createdAt,value
2018-07-25T00:00:37.490Z,4.55
2018-07-25T00:03:05.817Z,4.80
2018-07-25T00:05:34.204Z,5.10
2018-07-25T00:08:02.498Z,5.22
2018-07-25T00:10:36.354Z,5.40
2018-07-25T00:13:04.688Z,5.08
2018-07-25T00:15:33.011Z,5.35
2018-07-25T00:18:01.366Z,5.00
2018-07-25T00:20:29.656Z,5.45
2018-07-25T00:22:58.068Z,5.25
2018-07-25T00:25:26.392Z,5.80
2018-07-25T00:27:54.685Z,5.40
2018-07-25T00:30:23.047Z,5.65
2018-07-25T00:32:51.390Z,5.70
2018-07-25T00:35:19.853Z,5.22
2018-07-25T00:37:48.235Z,5.55
2018-07-25T00:40:16.598Z,5.55
2018-07-25T00:42:44.981Z,6.03
2018-07-25T00:45:13.307Z,5.15
2018-07-25T00:47:41.631Z,6.12
2018-07-25T00:50:10.207Z,5.67
2018-07-25T00:52:38.540Z,5.65
2018-07-25T00:55:06.871Z,5.42
2018-07-25T00:57:35.204Z,5.97
2018-07-25T01:00:03.578Z,5.80
2018-07-25T01:02:31.879Z,5.22
2018-07-25T01:05:00.324Z,6.62
2018-07-25T01:07:28.706Z,5.95
2018-07-25T01:09:57.048Z,5.47
2018-07-25T01:12:25.507Z,5.87
2018-07-25T01:14:54.053Z,5.40
2018-07-25T01:17:22.573Z,6.78
2018-07-25T01:19:50.927Z,6.12
2018-07-25T01:22:19.285Z,6.22
2018-07-25T01:24:47.706Z,6.33
2018-07-25T01:27:16.067Z,6.62
2018-07-25T01:29:44.401Z,6.10
2018-07-25T01:32:12.733Z,6.30
2018-07-25T01:34:41.091Z,6.83
2018-07-25T01:39:44.221Z,7.05
2018-07-25T01:42:12.576Z,6.12
2018-07-25T01:44:40.953Z,7.65
2018-07-25T01:47:09.280Z,7.17
2018-07-25T01:49:37.603Z,6.65
2018-07-25T01:52:05.982Z,6.67
2018-07-25T01:54:34.441Z,6.17
2018-07-25T01:57:02.851Z,6.80
2018-07-25T01:59:31.161Z,6.85
2018-07-25T02:02:00.393Z,6.42
2018-07-25T02:04:29.243Z,6.87
2018-07-25T02:06:57.546Z,6.60
2018-07-25T02:09:26.039Z,6.37
2018-07-25T02:11:54.366Z,6.83
2018-07-25T02:14:22.787Z,6.40
2018-07-25T02:16:51.119Z,6.83
2018-07-25T02:19:19.421Z,6.47
2018-07-25T02:21:47.755Z,6.15
2018-07-25T02:24:16.086Z,6.75
2018-07-25T02:26:44.184Z,6.15
2018-07-25T02:29:12.499Z,6.40
2018-07-25T02:31:40.934Z,6.55
2018-07-25T02:34:14.702Z,6.35
2018-07-25T02:36:43.017Z,6.42
2018-07-25T02:39:13.154Z,6.12
2018-07-25T02:41:41.786Z,5.90
2018-07-25T02:44:10.172Z,6.33
2018-07-25T02:46:38.610Z,6.15
2018-07-25T02:49:07.157Z,7.10
2018-07-25T02:51:35.526Z,5.92
2018-07-25T02:54:04.300Z,6.10
2018-07-25T02:56:33.036Z,6.45
2018-07-25T02:59:01.729Z,6.37
2018-07-25T03:01:30.100Z,6.33
2018-07-25T03:03:58.507Z,6.03
2018-07-25T03:06:27.058Z,6.35
2018-07-25T03:08:55.387Z,5.62
2018-07-25T03:11:23.706Z,6.42
2018-07-25T03:13:52.052Z,6.83
2018-07-25T03:16:20.361Z,6.62
2018-07-25T03:18:48.685Z,6.20
2018-07-25T03:21:17.121Z,5.90
2018-07-25T03:23:46.047Z,6.85
2018-07-25T03:26:14.505Z,6.62
2018-07-25T03:28:42.808Z,6.42
2018-07-25T03:31:11.145Z,6.22
2018-07-25T03:33:39.431Z,6.58
2018-07-25T03:36:07.784Z,6.78
2018-07-25T03:38:36.301Z,6.78
2018-07-25T03:41:04.654Z,6.83
2018-07-25T03:43:32.979Z,6.65
2018-07-25T03:46:01.308Z,6.97
2018-07-25T03:48:29.655Z,6.60
2018-07-25T03:50:57.988Z,7.33
2018-07-25T03:53:26.292Z,7.12
2018-07-25T03:55:54.889Z,7.17
2018-07-25T03:58:23.331Z,7.12
2018-07-25T04:00:51.828Z,8.43
2018-07-25T04:03:20.171Z,7.53
2018-07-25T04:05:48.473Z,8.33
2018-07-25T04:08:16.940Z,7.45
2018-07-25T04:10:49.050Z,7.67
2018-07-25T04:13:18.191Z,7.62
2018-07-25T04:15:46.697Z,7.95
2018-07-25T04:18:15.091Z,8.05
2018-07-25T04:20:43.377Z,7.85
2018-07-25T04:23:11.700Z,7.67
2018-07-25T04:25:40.003Z,7.65
2018-07-25T04:28:08.344Z,7.47
2018-07-25T04:30:36.758Z,8.45
2018-07-25T04:33:05.094Z,8.05
2018-07-25T04:35:33.406Z,7.85
2018-07-25T04:38:01.759Z,8.03
2018-07-25T04:40:30.168Z,8.38
2018-07-25T04:42:58.622Z,7.80
2018-07-25T04:45:27.768Z,8.05
2018-07-25T04:47:56.255Z,7.67
2018-07-25T04:50:24.567Z,8.13
2018-07-25T04:52:52.972Z,7.67
2018-07-25T04:55:21.330Z,8.93
2018-07-25T04:57:49.666Z,8.25
2018-07-25T05:00:18.019Z,8.23
2018-07-25T05:02:46.309Z,8.10
2018-07-25T05:05:14.695Z,8.93
2018-07-25T05:07:42.978Z,8.70
2018-07-25T05:10:11.404Z,8.90
2018-07-25T05:12:39.862Z,8.55
2018-07-25T05:15:08.237Z,8.68
2018-07-25T05:17:36.540Z,9.00
2018-07-25T05:20:05.323Z,9.10
2018-07-25T05:22:33.755Z,9.30
2018-07-25T05:25:02.088Z,8.78
2018-07-25T05:27:30.608Z,9.30
2018-07-25T05:29:58.940Z,8.65
2018-07-25T05:32:27.378Z,9.43
2018-07-25T05:34:55.764Z,9.65
2018-07-25T05:37:23.846Z,9.58
2018-07-25T05:39:52.246Z,8.33
2018-07-25T05:42:20.573Z,9.45
2018-07-25T05:44:48.985Z,10.23
2018-07-25T05:47:17.381Z,9.18
